sensor_id;sensor_type;location;lat;lon;timestamp;P1;P2;P0
45440;PMS5003;31189;38.790;-77.084;2023-02-27T00:00:47;16;15;
45440;PMS5003;31189;38.790;-77.084;2023-02-27T00:03:15;13;12;
45440;PMS5003;31189;38.790;-77.084;2023-02-27T00:05:43;9;9;
45440;PMS5003;31189;38.790;-77.084;2023-02-27T00:08:11;15;14;
45440;PMS5003;31189;38.790;-77.084;2023-02-27T00:10:39;24;22;
45440;PMS5003;31189;38.790;-77.084;2023-02-27T00:13:07;28;21;
45440;PMS5003;31189;38.790;-77.084;2023-02-27T00:15:35;22;18;
45440;PMS5003;31189;38.790;-77.084;2023-02-27T00:18:03;16;12;
45440;PMS5003;31189;38.790;-77.084;2023-02-27T00:20:32;12;8;
45440;PMS5003;31189;38.790;-77.084;2023-02-27T00:23:00;9;9;
45440;PMS5003;31189;38.790;-77.084;2023-02-27T00:25:27;11;9;
45440;PMS5003;31189;38.790;-77.084;2023-02-27T00:27:56;12;8;
45440;PMS5003;31189;38.790;-77.084;2023-02-27T00:30:24;36;30;
45440;PMS5003;31189;38.790;-77.084;2023-02-27T00:32:52;29;25;
45440;PMS5003;31189;38.790;-77.084;2023-02-27T00:35:21;34;31;
45440;PMS5003;31189;38.790;-77.084;2023-02-27T00:37:49;35;27;
45440;PMS5003;31189;38.790;-77.084;2023-02-27T00:40:17;53;36;
45440;PMS5003;31189;38.790;-77.084;2023-02-27T00:42:45;31;30;
45440;PMS5003;31189;38.790;-77.084;2023-02-27T00:45:13;41;33;
45440;PMS5003;31189;38.790;-77.084;2023-02-27T00:47:41;56;37;
45440;PMS5003;31189;38.790;-77.084;2023-02-27T00:50:10;45;38;
45440;PMS5003;31189;38.790;-77.084;2023-02-27T00:52:38;32;29;
45440;PMS5003;31189;38.790;-77.084;2023-02-27T00:55:07;16;16;
45440;PMS5003;31189;38.790;-77.084;2023-02-27T00:57:36;22;16;
45440;PMS5003;31189;38.790;-77.084;2023-02-27T01:00:04;18;18;
45440;PMS5003;31189;38.790;-77.084;2023-02-27T01:02:34;38;25;
45440;PMS5003;31189;38.790;-77.084;2023-02-27T01:05:02;30;25;
45440;PMS5003;31189;38.790;-77.084;2023-02-27T01:07:30;17;14;
45440;PMS5003;31189;38.790;-77.084;2023-02-27T01:09:57;16;13;
45440;PMS5003;31189;38.790;-77.084;2023-02-27T01:12:25;14;13;
45440;PMS5003;31189;38.790;-77.084;2023-02-27T01:14:53;11;11;
45440;PMS5003;31189;38.790;-77.084;2023-02-27T01:17:22;12;11;
45440;PMS5003;31189;38.790;-77.084;2023-02-27T01:19:50;10;9;
45440;PMS5003;31189;38.790;-77.084;2023-02-27T01:22:17;12;10;
45440;PMS5003;31189;38.790;-77.084;2023-02-27T01:24:44;15;12;
45440;PMS5003;31189;38.790;-77.084;2023-02-27T01:27:12;10;10;
45440;PMS5003;31189;38.790;-77.084;2023-02-27T01:29:39;9;6;
45440;PMS5003;31189;38.790;-77.084;2023-02-27T01:32:08;11;10;
45440;PMS5003;31189;38.790;-77.084;2023-02-27T01:34:36;12;10;
45440;PMS5003;31189;38.790;-77.084;2023-02-27T01:37:04;10;6;
45440;PMS5003;31189;38.790;-77.084;2023-02-27T01:39:32;13;10;
45440;PMS5003;31189;38.790;-77.084;2023-02-27T01:42:00;10;8;
45440;PMS5003;31189;38.790;-77.084;2023-02-27T01:44:30;10;10;
45440;PMS5003;31189;38.790;-77.084;2023-02-27T01:47:27;12;9;
45440;PMS5003;31189;38.790;-77.084;2023-02-27T01:49:55;8;7;
45440;PMS5003;31189;38.790;-77.084;2023-02-27T01:52:23;11;8;
45440;PMS5003;31189;38.790;-77.084;2023-02-27T01:54:52;10;9;
45440;PMS5003;31189;38.790;-77.084;2023-02-27T01:57:21;12;11;
45440;PMS5003;31189;38.790;-77.084;2023-02-27T01:59:49;9;7;
45440;PMS5003;31189;38.790;-77.084;2023-02-27T02:02:18;7;7;
45440;PMS5003;31189;38.790;-77.084;2023-02-27T02:04:52;9;9;
45440;PMS5003;31189;38.790;-77.084;2023-02-27T02:07:22;11;9;
45440;PMS5003;31189;38.790;-77.084;2023-02-27T02:09:51;20;16;
45440;PMS5003;31189;38.790;-77.084;2023-02-27T02:12:23;15;15;
45440;PMS5003;31189;38.790;-77.084;2023-02-27T02:14:54;35;21;
45440;PMS5003;31189;38.790;-77.084;2023-02-27T02:17:25;17;15;
45440;PMS5003;31189;38.790;-77.084;2023-02-27T02:20:10;14;12;
45440;PMS5003;31189;38.790;-77.084;2023-02-27T02:24:54;12;12;
45440;PMS5003;31189;38.790;-77.084;2023-02-27T02:27:49;27;17;
45440;PMS5003;31189;38.790;-77.084;2023-02-27T02:30:46;17;14;
45440;PMS5003;31189;38.790;-77.084;2023-02-27T02:33:37;11;11;
45440;PMS5003;31189;38.790;-77.084;2023-02-27T02:38:31;10;8;
45440;PMS5003;31189;38.790;-77.084;2023-02-27T02:41:11;9;9;
45440;PMS5003;31189;38.790;-77.084;2023-02-27T02:43:47;10;10;
45440;PMS5003;31189;38.790;-77.084;2023-02-27T02:46:29;8;8;
45440;PMS5003;31189;38.790;-77.084;2023-02-27T02:49:07;11;8;
45440;PMS5003;31189;38.790;-77.084;2023-02-27T02:51:44;7;7;
45440;PMS5003;31189;38.790;-77.084;2023-02-27T02:54:19;9;8;
45440;PMS5003;31189;38.790;-77.084;2023-02-27T02:56:55;9;7;
45440;PMS5003;31189;38.790;-77.084;2023-02-27T02:59:32;6;6;
45440;PMS5003;31189;38.790;-77.084;2023-02-27T03:02:05;7;7;
45440;PMS5003;31189;38.790;-77.084;2023-02-27T03:04:37;7;7;
45440;PMS5003;31189;38.790;-77.084;2023-02-27T03:07:09;9;6;
45440;PMS5003;31189;38.790;-77.084;2023-02-27T03:09:42;8;7;
45440;PMS5003;31189;38.790;-77.084;2023-02-27T03:12:13;7;5;
45440;PMS5003;31189;38.790;-77.084;2023-02-27T03:14:47;8;7;
45440;PMS5003;31189;38.790;-77.084;2023-02-27T03:17:19;6;6;
45440;PMS5003;31189;38.790;-77.084;2023-02-27T03:19:55;8;7;
45440;PMS5003;31189;38.790;-77.084;2023-02-27T03:22:26;17;5;
45440;PMS5003;31189;38.790;-77.084;2023-02-27T03:24:59;5;5;
45440;PMS5003;31189;38.790;-77.084;2023-02-27T03:27:32;7;6;
45440;PMS5003;31189;38.790;-77.084;2023-02-27T03:30:05;7;7;
45440;PMS5003;31189;38.790;-77.084;2023-02-27T03:32:37;5;5;
45440;PMS5003;31189;38.790;-77.084;2023-02-27T03:35:13;6;5;
45440;PMS5003;31189;38.790;-77.084;2023-02-27T03:37:44;16;6;
45440;PMS5003;31189;38.790;-77.084;2023-02-27T03:40:24;6;6;
45440;PMS5003;31189;38.790;-77.084;2023-02-27T03:42:56;10;7;
45440;PMS5003;31189;38.790;-77.084;2023-02-27T03:45:30;5;5;
45440;PMS5003;31189;38.790;-77.084;2023-02-27T03:48:01;7;6;
45440;PMS5003;31189;38.790;-77.084;2023-02-27T03:50:31;8;6;
45440;PMS5003;31189;38.790;-77.084;2023-02-27T03:52:59;6;6;
45440;PMS5003;31189;38.790;-77.084;2023-02-27T03:55:32;13;6;
45440;PMS5003;31189;38.790;-77.084;2023-02-27T03:58:04;8;5;
45440;PMS5003;31189;38.790;-77.084;2023-02-27T04:00:32;9;7;
45440;PMS5003;31189;38.790;-77.084;2023-02-27T04:03:00;7;7;
45440;PMS5003;31189;38.790;-77.084;2023-02-27T04:05:30;9;8;
45440;PMS5003;31189;38.790;-77.084;2023-02-27T04:08:06;7;7;
45440;PMS5003;31189;38.790;-77.084;2023-02-27T04:10:50;9;8;
45440;PMS5003;31189;38.790;-77.084;2023-02-27T04:13:37;7;7;
45440;PMS5003;31189;38.790;-77.084;2023-02-27T04:16:20;10;8;
45440;PMS5003;31189;38.790;-77.084;2023-02-27T04:19:26;11;9;
45440;PMS5003;31189;38.790;-77.084;2023-02-27T04:22:15;10;8;
45440;PMS5003;31189;38.790;-77.084;2023-02-27T04:24:54;8;7;
45440;PMS5003;31189;38.790;-77.084;2023-02-27T04:27:32;7;6;
45440;PMS5003;31189;38.790;-77.084;2023-02-27T04:30:07;7;7;
45440;PMS5003;31189;38.790;-77.084;2023-02-27T04:32:47;7;7;
45440;PMS5003;31189;38.790;-77.084;2023-02-27T04:35:21;8;7;
45440;PMS5003;31189;38.790;-77.084;2023-02-27T04:37:55;12;8;
45440;PMS5003;31189;38.790;-77.084;2023-02-27T04:40:28;7;7;
45440;PMS5003;31189;38.790;-77.084;2023-02-27T04:43:02;8;8;
45440;PMS5003;31189;38.790;-77.084;2023-02-27T04:45:33;10;9;
45440;PMS5003;31189;38.790;-77.084;2023-02-27T04:48:04;11;9;
45440;PMS5003;31189;38.790;-77.084;2023-02-27T04:50:37;7;7;
45440;PMS5003;31189;38.790;-77.084;2023-02-27T04:53:10;8;7;
45440;PMS5003;31189;38.790;-77.084;2023-02-27T04:55:45;9;8;
45440;PMS5003;31189;38.790;-77.084;2023-02-27T04:58:17;6;6;
45440;PMS5003;31189;38.790;-77.084;2023-02-27T05:00:50;9;8;
45440;PMS5003;31189;38.790;-77.084;2023-02-27T05:03:24;8;8;
45440;PMS5003;31189;38.790;-77.084;2023-02-27T05:05:56;7;7;
45440;PMS5003;31189;38.790;-77.084;2023-02-27T05:08:28;7;6;
45440;PMS5003;31189;38.790;-77.084;2023-02-27T05:11:01;7;6;
45440;PMS5003;31189;38.790;-77.084;2023-02-27T05:13:36;7;7;
45440;PMS5003;31189;38.790;-77.084;2023-02-27T05:16:10;9;7;
45440;PMS5003;31189;38.790;-77.084;2023-02-27T05:18:45;7;7;
45440;PMS5003;31189;38.790;-77.084;2023-02-27T05:21:18;23;11;
45440;PMS5003;31189;38.790;-77.084;2023-02-27T05:23:57;8;8;
45440;PMS5003;31189;38.790;-77.084;2023-02-27T05:26:36;9;7;
45440;PMS5003;31189;38.790;-77.084;2023-02-27T05:29:18;9;9;
45440;PMS5003;31189;38.790;-77.084;2023-02-27T05:31:54;10;9;
45440;PMS5003;31189;38.790;-77.084;2023-02-27T05:34:31;11;10;
45440;PMS5003;31189;38.790;-77.084;2023-02-27T05:37:06;7;7;
45440;PMS5003;31189;38.790;-77.084;2023-02-27T05:39:40;8;8;
45440;PMS5003;31189;38.790;-77.084;2023-02-27T05:42:12;9;8;
45440;PMS5003;31189;38.790;-77.084;2023-02-27T05:44:44;13;10;
45440;PMS5003;31189;38.790;-77.084;2023-02-27T05:47:19;9;9;
45440;PMS5003;31189;38.790;-77.084;2023-02-27T05:49:52;10;8;
45440;PMS5003;31189;38.790;-77.084;2023-02-27T05:52:25;9;9;
45440;PMS5003;31189;38.790;-77.084;2023-02-27T05:54:58;10;10;
45440;PMS5003;31189;38.790;-77.084;2023-02-27T05:57:29;10;9;
45440;PMS5003;31189;38.790;-77.084;2023-02-27T06:00:05;9;8;
45440;PMS5003;31189;38.790;-77.084;2023-02-27T06:02:41;8;8;
45440;PMS5003;31189;38.790;-77.084;2023-02-27T06:05:12;9;9;
45440;PMS5003;31189;38.790;-77.084;2023-02-27T06:07:41;16;11;
45440;PMS5003;31189;38.790;-77.084;2023-02-27T06:10:10;10;9;
45440;PMS5003;31189;38.790;-77.084;2023-02-27T06:12:41;14;11;
45440;PMS5003;31189;38.790;-77.084;2023-02-27T06:15:10;11;10;
45440;PMS5003;31189;38.790;-77.084;2023-02-27T06:17:38;12;10;
45440;PMS5003;31189;38.790;-77.084;2023-02-27T06:20:07;15;12;
45440;PMS5003;31189;38.790;-77.084;2023-02-27T06:22:36;8;8;
45440;PMS5003;31189;38.790;-77.084;2023-02-27T06:25:05;12;11;
45440;PMS5003;31189;38.790;-77.084;2023-02-27T06:27:34;11;10;
45440;PMS5003;31189;38.790;-77.084;2023-02-27T06:30:02;10;10;
45440;PMS5003;31189;38.790;-77.084;2023-02-27T06:32:30;13;10;
45440;PMS5003;31189;38.790;-77.084;2023-02-27T06:34:59;13;11;
45440;PMS5003;31189;38.790;-77.084;2023-02-27T06:37:26;12;11;
45440;PMS5003;31189;38.790;-77.084;2023-02-27T06:39:54;27;13;
45440;PMS5003;31189;38.790;-77.084;2023-02-27T06:42:22;11;10;
45440;PMS5003;31189;38.790;-77.084;2023-02-27T06:44:51;11;10;
45440;PMS5003;31189;38.790;-77.084;2023-02-27T06:47:19;12;12;
45440;PMS5003;31189;38.790;-77.084;2023-02-27T06:49:48;13;9;
45440;PMS5003;31189;38.790;-77.084;2023-02-27T06:52:16;12;10;
45440;PMS5003;31189;38.790;-77.084;2023-02-27T06:54:43;12;12;
45440;PMS5003;31189;38.790;-77.084;2023-02-27T06:57:11;10;10;
45440;PMS5003;31189;38.790;-77.084;2023-02-27T06:59:38;10;9;
45440;PMS5003;31189;38.790;-77.084;2023-02-27T07:02:06;11;11;
45440;PMS5003;31189;38.790;-77.084;2023-02-27T07:04:33;12;11;
45440;PMS5003;31189;38.790;-77.084;2023-02-27T07:07:01;16;14;
45440;PMS5003;31189;38.790;-77.084;2023-02-27T07:09:29;10;10;
45440;PMS5003;31189;38.790;-77.084;2023-02-27T07:11:57;12;11;
45440;PMS5003;31189;38.790;-77.084;2023-02-27T07:14:26;11;11;
45440;PMS5003;31189;38.790;-77.084;2023-02-27T07:16:54;14;12;
45440;PMS5003;31189;38.790;-77.084;2023-02-27T07:19:21;14;11;
45440;PMS5003;31189;38.790;-77.084;2023-02-27T07:21:50;18;12;
45440;PMS5003;31189;38.790;-77.084;2023-02-27T07:24:18;18;15;
45440;PMS5003;31189;38.790;-77.084;2023-02-27T07:26:46;16;14;
45440;PMS5003;31189;38.790;-77.084;2023-02-27T07:29:14;15;13;
45440;PMS5003;31189;38.790;-77.084;2023-02-27T07:31:42;14;12;
45440;PMS5003;31189;38.790;-77.084;2023-02-27T07:34:10;15;13;
45440;PMS5003;31189;38.790;-77.084;2023-02-27T07:36:38;12;10;
45440;PMS5003;31189;38.790;-77.084;2023-02-27T07:39:06;11;11;
45440;PMS5003;31189;38.790;-77.084;2023-02-27T07:41:34;16;14;
45440;PMS5003;31189;38.790;-77.084;2023-02-27T07:44:02;18;14;
45440;PMS5003;31189;38.790;-77.084;2023-02-27T07:46:31;15;15;
45440;PMS5003;31189;38.790;-77.084;2023-02-27T07:48:59;16;13;
45440;PMS5003;31189;38.790;-77.084;2023-02-27T07:51:27;17;15;
45440;PMS5003;31189;38.790;-77.084;2023-02-27T07:53:55;14;12;
45440;PMS5003;31189;38.790;-77.084;2023-02-27T07:56:24;16;16;
45440;PMS5003;31189;38.790;-77.084;2023-02-27T07:58:53;15;13;
45440;PMS5003;31189;38.790;-77.084;2023-02-27T08:01:21;14;13;
45440;PMS5003;31189;38.790;-77.084;2023-02-27T08:03:49;15;14;
45440;PMS5003;31189;38.790;-77.084;2023-02-27T08:06:16;14;14;
45440;PMS5003;31189;38.790;-77.084;2023-02-27T08:08:44;16;14;
45440;PMS5003;31189;38.790;-77.084;2023-02-27T08:11:12;23;15;
45440;PMS5003;31189;38.790;-77.084;2023-02-27T08:13:39;13;13;
45440;PMS5003;31189;38.790;-77.084;2023-02-27T08:16:08;16;15;
45440;PMS5003;31189;38.790;-77.084;2023-02-27T08:18:36;15;13;
45440;PMS5003;31189;38.790;-77.084;2023-02-27T08:21:04;15;14;
45440;PMS5003;31189;38.790;-77.084;2023-02-27T08:23:32;14;12;
45440;PMS5003;31189;38.790;-77.084;2023-02-27T08:26:00;16;13;
45440;PMS5003;31189;38.790;-77.084;2023-02-27T08:28:29;16;13;
45440;PMS5003;31189;38.790;-77.084;2023-02-27T08:30:57;16;15;
45440;PMS5003;31189;38.790;-77.084;2023-02-27T08:33:25;18;15;
45440;PMS5003;31189;38.790;-77.084;2023-02-27T08:35:53;15;13;
45440;PMS5003;31189;38.790;-77.084;2023-02-27T08:38:20;12;12;
45440;PMS5003;31189;38.790;-77.084;2023-02-27T08:40:49;15;12;
45440;PMS5003;31189;38.790;-77.084;2023-02-27T08:43:18;14;14;
45440;PMS5003;31189;38.790;-77.084;2023-02-27T08:45:46;15;13;
45440;PMS5003;31189;38.790;-77.084;2023-02-27T08:48:14;11;10;
45440;PMS5003;31189;38.790;-77.084;2023-02-27T08:50:43;14;12;
45440;PMS5003;31189;38.790;-77.084;2023-02-27T08:53:12;12;12;
45440;PMS5003;31189;38.790;-77.084;2023-02-27T08:55:40;13;13;
45440;PMS5003;31189;38.790;-77.084;2023-02-27T08:58:09;17;15;
45440;PMS5003;31189;38.790;-77.084;2023-02-27T09:00:37;17;14;
45440;PMS5003;31189;38.790;-77.084;2023-02-27T09:03:05;16;16;
45440;PMS5003;31189;38.790;-77.084;2023-02-27T09:05:33;16;15;
45440;PMS5003;31189;38.790;-77.084;2023-02-27T09:08:01;13;13;
45440;PMS5003;31189;38.790;-77.084;2023-02-27T09:10:30;14;13;
45440;PMS5003;31189;38.790;-77.084;2023-02-27T09:12:59;17;17;
45440;PMS5003;31189;38.790;-77.084;2023-02-27T09:15:27;18;18;
45440;PMS5003;31189;38.790;-77.084;2023-02-27T09:17:54;19;17;
45440;PMS5003;31189;38.790;-77.084;2023-02-27T09:20:23;17;17;
45440;PMS5003;31189;38.790;-77.084;2023-02-27T09:22:52;23;15;
45440;PMS5003;31189;38.790;-77.084;2023-02-27T09:25:20;16;16;
45440;PMS5003;31189;38.790;-77.084;2023-02-27T09:27:48;29;17;
45440;PMS5003;31189;38.790;-77.084;2023-02-27T09:30:16;20;16;
45440;PMS5003;31189;38.790;-77.084;2023-02-27T09:32:44;26;15;
45440;PMS5003;31189;38.790;-77.084;2023-02-27T09:35:12;24;17;
45440;PMS5003;31189;38.790;-77.084;2023-02-27T09:37:41;15;15;
45440;PMS5003;31189;38.790;-77.084;2023-02-27T09:40:11;19;18;
45440;PMS5003;31189;38.790;-77.084;2023-02-27T09:42:43;17;17;
45440;PMS5003;31189;38.790;-77.084;2023-02-27T09:45:15;17;16;
45440;PMS5003;31189;38.790;-77.084;2023-02-27T09:47:48;14;14;
45440;PMS5003;31189;38.790;-77.084;2023-02-27T09:50:24;15;15;
45440;PMS5003;31189;38.790;-77.084;2023-02-27T09:53:01;15;14;
45440;PMS5003;31189;38.790;-77.084;2023-02-27T09:55:30;15;15;
45440;PMS5003;31189;38.790;-77.084;2023-02-27T09:58:03;13;13;
45440;PMS5003;31189;38.790;-77.084;2023-02-27T10:00:38;17;15;
45440;PMS5003;31189;38.790;-77.084;2023-02-27T10:03:17;18;18;
45440;PMS5003;31189;38.790;-77.084;2023-02-27T10:06:07;17;15;
45440;PMS5003;31189;38.790;-77.084;2023-02-27T10:08:44;27;18;
45440;PMS5003;31189;38.790;-77.084;2023-02-27T10:11:19;27;17;
45440;PMS5003;31189;38.790;-77.084;2023-02-27T10:13:54;18;17;
45440;PMS5003;31189;38.790;-77.084;2023-02-27T10:16:27;26;20;
45440;PMS5003;31189;38.790;-77.084;2023-02-27T10:18:59;23;19;
45440;PMS5003;31189;38.790;-77.084;2023-02-27T10:21:32;16;16;
45440;PMS5003;31189;38.790;-77.084;2023-02-27T10:24:05;16;15;
45440;PMS5003;31189;38.790;-77.084;2023-02-27T10:26:42;15;14;
45440;PMS5003;31189;38.790;-77.084;2023-02-27T10:29:14;17;16;
45440;PMS5003;31189;38.790;-77.084;2023-02-27T10:31:44;15;15;
45440;PMS5003;31189;38.790;-77.084;2023-02-27T10:34:15;15;15;
45440;PMS5003;31189;38.790;-77.084;2023-02-27T10:36:44;26;17;
45440;PMS5003;31189;38.790;-77.084;2023-02-27T10:39:13;18;16;
45440;PMS5003;31189;38.790;-77.084;2023-02-27T10:41:43;17;17;
45440;PMS5003;31189;38.790;-77.084;2023-02-27T10:44:13;17;16;
45440;PMS5003;31189;38.790;-77.084;2023-02-27T10:46:42;18;15;
45440;PMS5003;31189;38.790;-77.084;2023-02-27T10:49:12;17;16;
45440;PMS5003;31189;38.790;-77.084;2023-02-27T10:51:42;18;18;
45440;PMS5003;31189;38.790;-77.084;2023-02-27T10:54:13;18;17;
45440;PMS5003;31189;38.790;-77.084;2023-02-27T10:56:47;14;14;
45440;PMS5003;31189;38.790;-77.084;2023-02-27T10:59:18;16;16;
45440;PMS5003;31189;38.790;-77.084;2023-02-27T11:01:49;14;14;
45440;PMS5003;31189;38.790;-77.084;2023-02-27T11:04:24;17;14;
45440;PMS5003;31189;38.790;-77.084;2023-02-27T11:06:55;18;17;
45440;PMS5003;31189;38.790;-77.084;2023-02-27T11:09:24;22;19;
45440;PMS5003;31189;38.790;-77.084;2023-02-27T11:11:54;17;17;
45440;PMS5003;31189;38.790;-77.084;2023-02-27T11:14:37;19;16;
45440;PMS5003;31189;38.790;-77.084;2023-02-27T11:17:21;17;15;
45440;PMS5003;31189;38.790;-77.084;2023-02-27T11:19:51;15;14;
45440;PMS5003;31189;38.790;-77.084;2023-02-27T11:22:19;21;19;
45440;PMS5003;31189;38.790;-77.084;2023-02-27T11:24:50;18;18;
45440;PMS5003;31189;38.790;-77.084;2023-02-27T11:27:20;17;16;
45440;PMS5003;31189;38.790;-77.084;2023-02-27T11:29:58;16;14;
45440;PMS5003;31189;38.790;-77.084;2023-02-27T11:32:29;30;17;
45440;PMS5003;31189;38.790;-77.084;2023-02-27T11:35:14;18;17;
45440;PMS5003;31189;38.790;-77.084;2023-02-27T11:37:49;19;16;
45440;PMS5003;31189;38.790;-77.084;2023-02-27T11:40:19;16;16;
45440;PMS5003;31189;38.790;-77.084;2023-02-27T11:42:49;15;15;
45440;PMS5003;31189;38.790;-77.084;2023-02-27T11:45:22;30;18;
45440;PMS5003;31189;38.790;-77.084;2023-02-27T11:47:56;19;16;
45440;PMS5003;31189;38.790;-77.084;2023-02-27T11:50:31;18;18;
45440;PMS5003;31189;38.790;-77.084;2023-02-27T11:51:08;18;18;
45440;PMS5003;31189;38.790;-77.084;2023-02-27T11:53:57;21;20;
45440;PMS5003;31189;38.790;-77.084;2023-02-27T11:56:35;18;18;
45440;PMS5003;31189;38.790;-77.084;2023-02-27T11:59:11;18;16;
45440;PMS5003;31189;38.790;-77.084;2023-02-27T12:01:49;15;15;
45440;PMS5003;31189;38.790;-77.084;2023-02-27T12:04:23;29;18;
45440;PMS5003;31189;38.790;-77.084;2023-02-27T12:06:57;23;19;
45440;PMS5003;31189;38.790;-77.084;2023-02-27T12:09:33;18;17;
45440;PMS5003;31189;38.790;-77.084;2023-02-27T12:12:08;24;18;
45440;PMS5003;31189;38.790;-77.084;2023-02-27T12:14:47;28;19;
45440;PMS5003;31189;38.790;-77.084;2023-02-27T12:17:25;26;17;
45440;PMS5003;31189;38.790;-77.084;2023-02-27T12:20:00;21;18;
45440;PMS5003;31189;38.790;-77.084;2023-02-27T12:22:44;18;17;
45440;PMS5003;31189;38.790;-77.084;2023-02-27T12:25:18;15;15;
45440;PMS5003;31189;38.790;-77.084;2023-02-27T12:28:01;22;18;
45440;PMS5003;31189;38.790;-77.084;2023-02-27T12:30:38;18;17;
45440;PMS5003;31189;38.790;-77.084;2023-02-27T12:33:16;23;20;
45440;PMS5003;31189;38.790;-77.084;2023-02-27T12:35:57;17;16;
45440;PMS5003;31189;38.790;-77.084;2023-02-27T12:38:29;25;21;
45440;PMS5003;31189;38.790;-77.084;2023-02-27T12:41:00;19;17;
45440;PMS5003;31189;38.790;-77.084;2023-02-27T12:43:41;27;20;
45440;PMS5003;31189;38.790;-77.084;2023-02-27T12:46:19;22;19;
45440;PMS5003;31189;38.790;-77.084;2023-02-27T12:48:57;25;23;
45440;PMS5003;31189;38.790;-77.084;2023-02-27T12:51:41;19;18;
45440;PMS5003;31189;38.790;-77.084;2023-02-27T12:54:20;20;19;
45440;PMS5003;31189;38.790;-77.084;2023-02-27T12:57:00;29;21;
45440;PMS5003;31189;38.790;-77.084;2023-02-27T12:59:48;16;16;
45440;PMS5003;31189;38.790;-77.084;2023-02-27T13:02:29;22;20;
45440;PMS5003;31189;38.790;-77.084;2023-02-27T13:05:10;21;19;
45440;PMS5003;31189;38.790;-77.084;2023-02-27T13:07:50;24;19;
45440;PMS5003;31189;38.790;-77.084;2023-02-27T13:10:22;16;16;
45440;PMS5003;31189;38.790;-77.084;2023-02-27T13:12:58;19;18;
45440;PMS5003;31189;38.790;-77.084;2023-02-27T13:15:32;23;20;
45440;PMS5003;31189;38.790;-77.084;2023-02-27T13:18:18;17;17;
45440;PMS5003;31189;38.790;-77.084;2023-02-27T13:20:55;27;20;
45440;PMS5003;31189;38.790;-77.084;2023-02-27T13:23:33;24;17;
45440;PMS5003;31189;38.790;-77.084;2023-02-27T13:26:10;22;20;
45440;PMS5003;31189;38.790;-77.084;2023-02-27T13:28:45;18;18;
45440;PMS5003;31189;38.790;-77.084;2023-02-27T13:31:16;26;20;
45440;PMS5003;31189;38.790;-77.084;2023-02-27T13:33:53;26;24;
45440;PMS5003;31189;38.790;-77.084;2023-02-27T13:36:30;24;23;
45440;PMS5003;31189;38.790;-77.084;2023-02-27T13:39:02;22;19;
45440;PMS5003;31189;38.790;-77.084;2023-02-27T13:42:02;27;26;
45440;PMS5003;31189;38.790;-77.084;2023-02-27T13:44:38;29;25;
45440;PMS5003;31189;38.790;-77.084;2023-02-27T13:47:40;28;26;
45440;PMS5003;31189;38.790;-77.084;2023-02-27T13:50:47;29;27;
45440;PMS5003;31189;38.790;-77.084;2023-02-27T13:53:17;34;28;
45440;PMS5003;31189;38.790;-77.084;2023-02-27T13:55:56;24;24;
45440;PMS5003;31189;38.790;-77.084;2023-02-27T13:58:43;28;26;
45440;PMS5003;31189;38.790;-77.084;2023-02-27T14:01:14;21;20;
45440;PMS5003;31189;38.790;-77.084;2023-02-27T14:03:53;24;22;
45440;PMS5003;31189;38.790;-77.084;2023-02-27T14:06:24;25;19;
45440;PMS5003;31189;38.790;-77.084;2023-02-27T14:08:55;26;19;
45440;PMS5003;31189;38.790;-77.084;2023-02-27T14:11:25;32;20;
45440;PMS5003;31189;38.790;-77.084;2023-02-27T14:14:02;25;23;
45440;PMS5003;31189;38.790;-77.084;2023-02-27T14:16:59;22;18;
45440;PMS5003;31189;38.790;-77.084;2023-02-27T14:19:47;25;18;
45440;PMS5003;31189;38.790;-77.084;2023-02-27T14:22:34;15;14;
45440;PMS5003;31189;38.790;-77.084;2023-02-27T14:25:11;16;12;
45440;PMS5003;31189;38.790;-77.084;2023-02-27T14:27:47;16;15;
45440;PMS5003;31189;38.790;-77.084;2023-02-27T14:30:24;18;12;
45440;PMS5003;31189;38.790;-77.084;2023-02-27T14:32:58;14;12;
45440;PMS5003;31189;38.790;-77.084;2023-02-27T14:35:31;12;11;
45440;PMS5003;31189;38.790;-77.084;2023-02-27T14:37:59;11;10;
45440;PMS5003;31189;38.790;-77.084;2023-02-27T14:40:36;12;10;
45440;PMS5003;31189;38.790;-77.084;2023-02-27T14:43:18;13;10;
45440;PMS5003;31189;38.790;-77.084;2023-02-27T14:45:53;10;10;
45440;PMS5003;31189;38.790;-77.084;2023-02-27T14:48:29;24;12;
45440;PMS5003;31189;38.790;-77.084;2023-02-27T14:50:59;12;11;
45440;PMS5003;31189;38.790;-77.084;2023-02-27T14:53:27;11;10;
45440;PMS5003;31189;38.790;-77.084;2023-02-27T14:55:55;14;9;
45440;PMS5003;31189;38.790;-77.084;2023-02-27T14:58:25;10;9;
45440;PMS5003;31189;38.790;-77.084;2023-02-27T15:00:58;11;9;
45440;PMS5003;31189;38.790;-77.084;2023-02-27T15:03:33;16;13;
45440;PMS5003;31189;38.790;-77.084;2023-02-27T15:06:10;12;10;
45440;PMS5003;31189;38.790;-77.084;2023-02-27T15:08:44;12;11;
45440;PMS5003;31189;38.790;-77.084;2023-02-27T15:11:14;10;9;
45440;PMS5003;31189;38.790;-77.084;2023-02-27T15:13:44;8;6;
45440;PMS5003;31189;38.790;-77.084;2023-02-27T15:16:32;10;9;
45440;PMS5003;31189;38.790;-77.084;2023-02-27T15:19:05;14;8;
45440;PMS5003;31189;38.790;-77.084;2023-02-27T15:21:41;10;8;
45440;PMS5003;31189;38.790;-77.084;2023-02-27T15:24:19;15;12;
45440;PMS5003;31189;38.790;-77.084;2023-02-27T15:26:52;11;11;
45440;PMS5003;31189;38.790;-77.084;2023-02-27T15:29:23;11;9;
45440;PMS5003;31189;38.790;-77.084;2023-02-27T15:31:56;11;10;
45440;PMS5003;31189;38.790;-77.084;2023-02-27T15:34:24;11;9;
45440;PMS5003;31189;38.790;-77.084;2023-02-27T15:36:54;9;9;
45440;PMS5003;31189;38.790;-77.084;2023-02-27T15:39:23;15;12;
45440;PMS5003;31189;38.790;-77.084;2023-02-27T15:41:55;11;11;
45440;PMS5003;31189;38.790;-77.084;2023-02-27T15:44:26;14;9;
45440;PMS5003;31189;38.790;-77.084;2023-02-27T15:46:57;12;11;
45440;PMS5003;31189;38.790;-77.084;2023-02-27T15:49:26;16;10;
45440;PMS5003;31189;38.790;-77.084;2023-02-27T15:51:58;13;10;
45440;PMS5003;31189;38.790;-77.084;2023-02-27T15:54:30;11;9;
45440;PMS5003;31189;38.790;-77.084;2023-02-27T15:57:00;14;12;
45440;PMS5003;31189;38.790;-77.084;2023-02-27T15:59:30;14;12;
45440;PMS5003;31189;38.790;-77.084;2023-02-27T16:02:03;8;8;
45440;PMS5003;31189;38.790;-77.084;2023-02-27T16:04:35;8;8;
45440;PMS5003;31189;38.790;-77.084;2023-02-27T16:07:04;13;9;
45440;PMS5003;31189;38.790;-77.084;2023-02-27T16:09:39;11;9;
45440;PMS5003;31189;38.790;-77.084;2023-02-27T16:12:08;11;10;
45440;PMS5003;31189;38.790;-77.084;2023-02-27T16:14:40;11;11;
45440;PMS5003;31189;38.790;-77.084;2023-02-27T16:17:26;7;7;
45440;PMS5003;31189;38.790;-77.084;2023-02-27T16:19:55;12;10;
45440;PMS5003;31189;38.790;-77.084;2023-02-27T16:22:25;10;9;
45440;PMS5003;31189;38.790;-77.084;2023-02-27T16:24:53;9;9;
45440;PMS5003;31189;38.790;-77.084;2023-02-27T16:27:33;11;10;
45440;PMS5003;31189;38.790;-77.084;2023-02-27T16:30:07;11;11;
45440;PMS5003;31189;38.790;-77.084;2023-02-27T16:32:38;10;9;